Time;durP1;ratioP1;P1;durP2;ratioP2;P2;SDS_P1;SDS_P2;PMS_P1;PMS_P2;Temp;Humidity;BMP_temperature;BMP_pressure;BME280_temperature;BME280_humidity;BME280_pressure;Samples;Min_cycle;Max_cycle;Signal;HPM_P1;HPM_P2
2021/08/12 00:00:45;;;;;;;5.18;3.67;;;;;;;19.51;64.84;97626.34;4958466;28;20488;-76
2021/08/12 00:03:11;;;;;;;4.10;3.30;;;;;;;19.48;64.79;97620.84;4990760;28;20410;-76
2021/08/12 00:05:36;;;;;;;4.18;3.33;;;;;;;19.51;64.68;97626.34;4990320;28;20037;-76
2021/08/12 00:08:02;;;;;;;4.53;3.25;;;;;;;19.47;64.88;97625.38;4938187;28;20508;-76
2021/08/12 00:10:27;;;;;;;3.83;2.97;;;;;;;19.52;64.55;97630.56;4942115;28;20581;-76
2021/08/12 00:12:52;;;;;;;5.10;3.65;;;;;;;19.48;64.61;97629.56;4958137;28;20405;-76
2021/08/12 00:15:18;;;;;;;4.43;3.47;;;;;;;19.45;64.34;97630.16;4958026;28;20038;-76
2021/08/12 00:17:43;;;;;;;3.80;3.35;;;;;;;19.42;64.48;97625.44;4958118;28;20462;-76
2021/08/12 00:20:10;;;;;;;4.97;3.40;;;;;;;19.42;64.30;97618.31;4958152;28;20066;-76
2021/08/12 00:22:35;;;;;;;4.07;3.20;;;;;;;19.39;64.37;97623.38;4972281;28;20046;-76
2021/08/12 00:25:03;;;;;;;4.72;3.58;;;;;;;19.33;64.55;97620.06;4974043;28;20077;-76
2021/08/12 00:27:28;;;;;;;7.47;3.78;;;;;;;19.35;64.59;97627.69;4974256;28;20045;-76
2021/08/12 00:29:53;;;;;;;5.85;3.53;;;;;;;19.28;64.73;97615.63;4942030;28;20030;-76
2021/08/12 00:32:19;;;;;;;6.00;3.78;;;;;;;19.33;64.71;97619.25;4973495;28;20030;-76
2021/08/12 00:34:44;;;;;;;5.03;3.53;;;;;;;19.30;64.88;97614.56;4957682;28;20049;-76
2021/08/12 00:37:09;;;;;;;5.28;3.22;;;;;;;19.23;64.75;97615.72;4969840;28;20048;-76
2021/08/12 00:39:35;;;;;;;3.88;3.40;;;;;;;19.19;64.80;97614.75;4957388;28;20037;-76
2021/08/12 00:42:00;;;;;;;5.63;3.50;;;;;;;19.17;65.18;97611.59;4956482;28;20042;-76
2021/08/12 00:44:26;;;;;;;5.47;3.78;;;;;;;19.15;65.34;97618.25;4973622;28;20031;-76
2021/08/12 00:46:52;;;;;;;5.88;4.00;;;;;;;19.11;65.46;97619.88;4958121;28;20026;-76
2021/08/12 00:49:17;;;;;;;5.05;3.67;;;;;;;19.09;65.29;97620.19;4973655;28;20054;-76
2021/08/12 00:51:43;;;;;;;4.00;3.15;;;;;;;19.09;65.45;97615.69;4972755;28;20089;-76
2021/08/12 00:54:08;;;;;;;4.50;3.17;;;;;;;19.06;65.31;97624.19;4973630;28;20114;-76
2021/08/12 00:56:34;;;;;;;4.68;3.50;;;;;;;19.00;65.66;97617.41;4946731;28;20122;-76
2021/08/12 00:58:59;;;;;;;4.70;3.05;;;;;;;18.99;65.40;97612.44;4963396;28;20485;-76
2021/08/12 01:01:25;;;;;;;4.50;3.38;;;;;;;18.96;65.41;97618.28;4969672;28;20444;-76
2021/08/12 01:03:50;;;;;;;3.45;3.15;;;;;;;18.94;65.42;97608.00;5008496;23;20046;-78
2021/08/12 01:06:25;;;;;;;4.38;3.50;;;;;;;18.81;65.79;97613.97;4954743;28;20126;-78
2021/08/12 01:09:10;;;;;;;5.30;3.50;;;;;;;18.74;65.81;97618.84;4948162;28;20061;-78
2021/08/12 01:11:44;;;;;;;5.82;3.33;;;;;;;18.94;65.50;97613.28;4975267;28;20038;-78
2021/08/12 01:14:27;;;;;;;6.53;3.90;;;;;;;18.72;65.35;97613.84;4959027;28;20129;-79
2021/08/12 01:17:05;;;;;;;5.50;3.85;;;;;;;18.65;65.76;97611.56;4943407;28;20038;-78
2021/08/12 01:20:06;;;;;;;6.40;3.88;;;;;;;18.57;66.14;97614.84;4974708;28;20165;-78
2021/08/12 01:22:35;;;;;;;5.32;3.45;;;;;;;18.66;65.82;97612.34;4941814;28;20486;-79
2021/08/12 01:25:04;;;;;;;4.80;3.92;;;;;;;18.69;65.89;97607.28;4976319;28;20493;-77
2021/08/12 01:27:31;;;;;;;4.20;3.80;;;;;;;18.71;65.84;97609.63;4978683;28;20041;-78
2021/08/12 01:30:16;;;;;;;4.53;3.63;;;;;;;18.57;66.40;97609.56;4988989;28;20046;-78
2021/08/12 01:33:10;;;;;;;5.65;3.63;;;;;;;18.55;66.22;97601.16;4987669;28;20460;-78
2021/08/12 01:35:36;;;;;;;5.88;3.95;;;;;;;18.64;65.52;97598.66;4977185;28;20397;-78
2021/08/12 01:38:03;;;;;;;4.47;3.17;;;;;;;18.68;66.00;97604.94;4975045;28;20034;-78
2021/08/12 01:40:31;;;;;;;5.20;3.85;;;;;;;18.59;65.92;97606.66;4974117;28;20058;-78
2021/08/12 01:42:57;;;;;;;4.18;3.25;;;;;;;18.60;65.90;97610.88;4958451;28;20084;-78
2021/08/12 01:45:23;;;;;;;5.07;3.45;;;;;;;18.61;66.49;97617.69;4957750;28;20057;-79
2021/08/12 01:47:50;;;;;;;4.25;3.35;;;;;;;18.59;66.20;97612.69;4957137;28;20040;-78
2021/08/12 01:50:16;;;;;;;4.40;3.45;;;;;;;18.59;66.04;97609.28;4973254;28;20556;-78
2021/08/12 01:52:49;;;;;;;3.60;3.22;;;;;;;18.48;66.69;97609.44;4944436;28;20376;-78
2021/08/12 01:55:17;;;;;;;4.97;3.40;;;;;;;18.58;66.65;97605.09;4982679;28;20026;-78
2021/08/12 01:57:43;;;;;;;5.10;3.42;;;;;;;18.61;66.45;97596.59;4958081;28;20529;-78
2021/08/12 02:00:10;;;;;;;3.88;2.97;;;;;;;18.59;66.78;97596.88;4992882;28;20193;-78
2021/08/12 02:02:35;;;;;;;4.88;3.60;;;;;;;18.58;67.22;97589.28;4973094;28;20145;-78
2021/08/12 02:05:01;;;;;;;5.38;3.50;;;;;;;18.57;66.94;97590.34;4989207;28;20093;-78
2021/08/12 02:07:27;;;;;;;3.75;3.35;;;;;;;18.57;66.68;97588.47;4993421;28;20021;-78
2021/08/12 02:09:52;;;;;;;4.35;3.15;;;;;;;18.59;66.67;97596.09;4993176;28;20029;-78
2021/08/12 02:12:17;;;;;;;4.22;3.72;;;;;;;18.58;66.55;97599.81;4993020;28;20492;-78
2021/08/12 02:14:43;;;;;;;4.32;3.78;;;;;;;18.57;67.13;97592.97;4975910;28;20402;-78
2021/08/12 02:17:08;;;;;;;5.07;3.88;;;;;;;18.58;66.51;97595.31;4960353;28;20042;-78
2021/08/12 02:19:34;;;;;;;4.65;3.95;;;;;;;18.58;66.91;97594.56;4972618;28;20038;-78
2021/08/12 02:22:24;;;;;;;5.43;3.53;;;;;;;18.31;67.58;97586.19;4990293;28;20038;-78
2021/08/12 02:24:58;;;;;;;5.53;3.80;;;;;;;18.33;67.34;97583.28;4989041;28;20065;-78
2021/08/12 02:27:27;;;;;;;4.10;3.70;;;;;;;18.46;67.09;97569.38;4993737;28;20040;-78
2021/08/12 02:29:53;;;;;;;5.40;3.35;;;;;;;18.50;67.14;97582.78;4994172;28;20034;-78
2021/08/12 02:32:26;;;;;;;5.57;3.40;;;;;;;18.31;67.36;97580.91;4977005;28;20152;-79
2021/08/12 02:34:51;;;;;;;4.35;3.58;;;;;;;18.47;67.10;97578.88;4958369;28;20042;-78
2021/08/12 02:37:18;;;;;;;4.65;3.45;;;;;;;18.53;66.79;97582.22;4977876;28;20474;-78
2021/08/12 02:39:44;;;;;;;5.00;3.28;;;;;;;18.57;66.71;97585.84;4973909;28;20030;-78
2021/08/12 02:42:10;;;;;;;5.32;3.78;;;;;;;18.61;66.33;97588.69;4962611;28;20443;-78
2021/08/12 02:44:35;;;;;;;5.00;3.30;;;;;;;18.58;66.08;97584.00;4991824;28;20041;-78
2021/08/12 02:47:03;;;;;;;5.15;3.53;;;;;;;18.48;66.20;97580.41;4993576;28;20056;-79
2021/08/12 02:49:30;;;;;;;6.05;3.35;;;;;;;18.47;66.11;97576.22;4977617;28;20033;-78
2021/08/12 02:51:58;;;;;;;4.85;3.17;;;;;;;18.42;66.08;97578.13;4986365;28;20042;-78
2021/08/12 02:54:24;;;;;;;4.20;3.15;;;;;;;18.44;66.51;97574.16;4991057;28;20438;-78
2021/08/12 02:56:49;;;;;;;3.95;3.25;;;;;;;18.43;66.38;97567.31;4988559;28;20518;-78
2021/08/12 02:59:15;;;;;;;4.38;3.72;;;;;;;18.44;66.38;97573.34;4977880;28;20062;-78
2021/08/12 03:01:41;;;;;;;4.15;3.17;;;;;;;18.34;66.68;97580.34;4998634;28;20046;-78
2021/08/12 03:04:07;;;;;;;5.20;3.78;;;;;;;18.27;66.47;97572.03;4991960;28;20034;-78
2021/08/12 03:06:33;;;;;;;4.35;3.40;;;;;;;18.19;66.48;97570.00;4973967;28;20057;-77
2021/08/12 03:08:59;;;;;;;4.03;3.20;;;;;;;18.16;66.67;97573.22;4991400;28;20038;-77
2021/08/12 03:11:25;;;;;;;4.20;3.53;;;;;;;18.21;66.46;97567.09;4998091;28;20034;-78
2021/08/12 03:13:53;;;;;;;5.13;3.47;;;;;;;18.17;66.61;97566.09;4977799;28;20041;-78
2021/08/12 03:16:20;;;;;;;5.43;3.28;;;;;;;18.19;66.12;97566.59;4962290;28;20056;-78
2021/08/12 03:18:45;;;;;;;5.55;3.58;;;;;;;18.20;66.43;97563.69;4977383;28;20037;-78
2021/08/12 03:21:12;;;;;;;3.72;3.05;;;;;;;18.20;66.41;97573.44;4995697;28;20108;-78
2021/08/12 03:23:39;;;;;;;4.88;3.65;;;;;;;18.22;66.43;97571.31;4997605;28;20040;-78
2021/08/12 03:26:05;;;;;;;5.05;3.42;;;;;;;18.17;66.48;97569.53;4965581;28;20030;-78
2021/08/12 03:28:31;;;;;;;3.72;3.30;;;;;;;18.21;66.64;97575.78;4981412;28;20390;-78
2021/08/12 03:30:59;;;;;;;4.45;3.67;;;;;;;18.18;66.53;97573.72;4993166;28;20042;-78
2021/08/12 03:33:25;;;;;;;4.55;3.75;;;;;;;18.18;66.86;97571.09;4985045;28;20034;-78
2021/08/12 03:35:50;;;;;;;7.10;4.07;;;;;;;18.20;66.66;97576.06;4984369;28;20032;-78
2021/08/12 03:38:16;;;;;;;4.78;3.20;;;;;;;18.18;66.94;97580.84;4983619;28;20568;-78
2021/08/12 03:40:41;;;;;;;4.53;3.45;;;;;;;18.13;66.98;97579.06;4980765;28;20100;-77
2021/08/12 03:43:07;;;;;;;4.57;3.83;;;;;;;18.11;67.33;97576.72;4978613;28;20520;-78
2021/08/12 03:45:32;;;;;;;4.30;3.70;;;;;;;18.11;66.92;97581.97;4962953;28;20441;-78
2021/08/12 03:48:00;;;;;;;5.40;4.05;;;;;;;18.09;67.02;97592.00;4990074;28;20033;-78
2021/08/12 03:50:25;;;;;;;6.35;3.90;;;;;;;18.08;67.00;97585.19;4987425;28;20034;-78
2021/08/12 03:52:51;;;;;;;4.40;3.58;;;;;;;18.06;66.76;97583.88;4979025;28;20432;-78
2021/08/12 03:55:16;;;;;;;6.13;4.18;;;;;;;18.04;67.49;97589.44;4975952;28;20416;-77
2021/08/12 03:57:42;;;;;;;4.65;3.40;;;;;;;18.07;67.60;97585.47;4978282;28;20125;-77
2021/08/12 04:00:09;;;;;;;4.43;3.70;;;;;;;18.06;67.55;97579.41;4998428;28;20343;-78
2021/08/12 04:02:34;;;;;;;4.93;3.83;;;;;;;18.09;67.32;97583.31;4978072;28;20037;-77
2021/08/12 04:04:59;;;;;;;5.25;3.92;;;;;;;18.09;67.71;97583.31;4978831;28;20038;-78
2021/08/12 04:07:25;;;;;;;4.50;3.90;;;;;;;18.10;67.40;97588.31;4995521;28;20033;-78
2021/08/12 04:09:50;;;;;;;5.55;3.95;;;;;;;18.11;67.25;97589.09;4987970;28;20025;-78
2021/08/12 04:12:15;;;;;;;4.53;3.30;;;;;;;18.10;67.48;97583.03;4981293;28;20125;-78
2021/08/12 04:14:41;;;;;;;4.95;3.60;;;;;;;18.06;67.70;97579.41;5015234;28;20040;-78
2021/08/12 04:17:06;;;;;;;3.38;2.80;;;;;;;18.11;67.57;97592.53;4996739;28;20039;-78
2021/08/12 04:19:31;;;;;;;5.03;3.85;;;;;;;18.07;67.42;97586.22;4980221;28;20030;-78
2021/08/12 04:21:57;;;;;;;5.97;4.30;;;;;;;18.05;67.74;97588.38;4977369;28;20044;-78
2021/08/12 04:24:22;;;;;;;3.90;3.50;;;;;;;18.05;67.62;97587.59;4995929;28;20052;-78
2021/08/12 04:26:47;;;;;;;3.63;3.28;;;;;;;18.05;67.91;97604.19;4995666;28;20113;-78
2021/08/12 04:29:13;;;;;;;4.25;3.65;;;;;;;18.05;67.85;97606.03;5013331;28;20080;-78
2021/08/12 04:31:38;;;;;;;5.05;3.88;;;;;;;18.08;67.67;97610.75;4978984;28;20034;-78
2021/08/12 04:34:04;;;;;;;4.18;3.10;;;;;;;18.09;67.45;97599.13;4994419;28;20472;-78
2021/08/12 04:36:29;;;;;;;4.53;3.40;;;;;;;18.11;67.75;97597.78;5012960;28;20087;-78
2021/08/12 04:38:54;;;;;;;4.90;3.30;;;;;;;18.11;67.71;97595.16;4977879;28;20030;-78
2021/08/12 04:41:21;;;;;;;4.32;3.55;;;;;;;18.15;67.77;97588.25;4992419;28;20555;-78
2021/08/12 04:43:47;;;;;;;5.47;3.65;;;;;;;18.18;67.66;97588.75;4993084;28;20040;-78
2021/08/12 04:46:12;;;;;;;5.50;4.22;;;;;;;18.17;67.88;97589.81;4978843;28;20022;-77
2021/08/12 04:48:38;;;;;;;5.35;3.60;;;;;;;18.22;67.94;97592.41;4963229;28;20072;-78
2021/08/12 04:51:03;;;;;;;5.25;3.33;;;;;;;18.25;67.47;97597.06;4994823;28;20034;-78
2021/08/12 04:53:28;;;;;;;4.90;3.60;;;;;;;18.24;67.24;97595.53;4974868;28;20040;-78
2021/08/12 04:55:54;;;;;;;4.50;3.42;;;;;;;18.32;67.54;97603.59;5007269;28;20034;-78
2021/08/12 04:58:19;;;;;;;5.90;3.60;;;;;;;18.37;67.54;97599.31;4991896;28;20037;-78
2021/08/12 05:00:44;;;;;;;4.75;3.50;;;;;;;18.40;67.43;97591.59;4942606;28;20445;-79
2021/08/12 05:03:10;;;;;;;4.18;3.30;;;;;;;18.47;67.47;97597.31;4996717;28;20038;-78
2021/08/12 05:05:35;;;;;;;3.92;3.38;;;;;;;18.48;67.59;97596.25;4974770;28;20687;-78
2021/08/12 05:08:01;;;;;;;4.68;3.28;;;;;;;18.50;67.43;97585.41;4987577;28;20396;-78
2021/08/12 05:10:27;;;;;;;3.88;3.42;;;;;;;18.53;67.29;97579.56;5011294;28;20033;-78
2021/08/12 05:12:54;;;;;;;3.92;3.30;;;;;;;18.60;67.48;97592.41;4961317;28;20084;-78
2021/08/12 05:15:20;;;;;;;4.20;3.47;;;;;;;18.67;67.46;97603.38;4978084;28;20121;-78
2021/08/12 05:17:45;;;;;;;5.80;4.05;;;;;;;18.72;67.48;97603.31;4987511;28;20130;-78
2021/08/12 05:20:14;;;;;;;5.60;4.05;;;;;;;18.74;67.25;97601.16;4974486;28;20030;-79
2021/08/12 05:22:40;;;;;;;4.93;3.60;;;;;;;18.82;67.36;97599.72;4975966;28;20041;-78
2021/08/12 05:25:06;;;;;;;4.30;3.35;;;;;;;18.84;66.62;97601.03;4974581;28;20028;-78
2021/08/12 05:27:32;;;;;;;4.78;3.08;;;;;;;18.81;66.54;97598.94;4981082;28;20042;-78
2021/08/12 05:29:57;;;;;;;5.88;4.10;;;;;;;18.85;66.52;97604.44;4976282;28;20108;-78
2021/08/12 05:32:24;;;;;;;6.00;4.05;;;;;;;18.83;67.10;97606.59;4960755;28;20766;-78
2021/08/12 05:34:49;;;;;;;5.95;3.83;;;;;;;18.86;67.14;97613.94;4978292;28;20033;-78
2021/08/12 05:37:15;;;;;;;7.82;3.92;;;;;;;18.87;67.26;97608.38;4962264;28;20815;-78
2021/08/12 05:39:40;;;;;;;4.97;4.03;;;;;;;18.94;67.43;97613.28;4994824;28;20045;-78
2021/08/12 05:42:05;;;;;;;6.00;4.53;;;;;;;19.04;66.94;97607.06;4977337;28;20251;-78
2021/08/12 05:44:31;;;;;;;6.45;4.20;;;;;;;19.12;66.92;97603.75;4994635;28;20044;-78
2021/08/12 05:46:56;;;;;;;7.18;4.88;;;;;;;19.25;66.86;97608.28;4991232;28;20465;-78
2021/08/12 05:49:24;;;;;;;5.50;4.60;;;;;;;19.37;66.86;97607.84;4974836;28;20064;-78
2021/08/12 05:51:51;;;;;;;8.45;4.50;;;;;;;19.47;66.44;97606.88;4997593;28;20038;-78
2021/08/12 05:54:16;;;;;;;7.05;4.18;;;;;;;19.59;66.56;97616.97;4982497;28;20034;-78
2021/08/12 05:56:42;;;;;;;12.50;4.28;;;;;;;19.66;66.47;97606.78;4976174;28;20049;-78
2021/08/12 05:59:07;;;;;;;5.65;3.70;;;;;;;19.85;66.00;97611.25;4976058;28;20105;-78
2021/08/12 06:01:33;;;;;;;7.90;3.70;;;;;;;19.94;65.68;97610.25;4995564;28;20113;-78
2021/08/12 06:03:59;;;;;;;6.22;3.67;;;;;;;20.07;65.63;97610.56;4988964;28;20124;-78
2021/08/12 06:06:27;;;;;;;5.65;4.63;;;;;;;20.16;65.45;97619.34;4976334;28;20108;-78
2021/08/12 06:08:53;;;;;;;4.43;3.47;;;;;;;20.27;65.18;97612.78;4986357;28;20404;-78
2021/08/12 06:11:18;;;;;;;4.20;3.45;;;;;;;20.34;65.05;97604.41;4978848;28;20034;-78
2021/08/12 06:13:43;;;;;;;4.70;3.78;;;;;;;20.39;64.88;97614.88;4962756;28;20076;-78
2021/08/12 06:16:10;;;;;;;4.68;3.28;;;;;;;20.46;64.95;97611.84;4995225;28;20037;-78
2021/08/12 06:18:35;;;;;;;5.97;3.78;;;;;;;20.50;64.47;97612.81;4989397;28;20041;-78
2021/08/12 06:21:01;;;;;;;3.80;3.47;;;;;;;20.56;64.18;97608.97;4994990;28;20030;-78
2021/08/12 06:23:26;;;;;;;4.22;3.38;;;;;;;20.58;64.14;97607.59;4962344;28;20022;-77
2021/08/12 06:25:52;;;;;;;5.13;3.78;;;;;;;20.64;64.49;97608.28;4978347;28;20018;-76
2021/08/12 06:28:17;;;;;;;6.85;3.72;;;;;;;20.71;64.24;97608.66;5010356;28;20061;-77
2021/08/12 06:30:43;;;;;;;4.20;3.58;;;;;;;20.83;63.79;97618.72;4994115;28;20038;-77
2021/08/12 06:33:08;;;;;;;5.22;3.80;;;;;;;20.95;63.80;97608.38;4977855;28;20030;-77
2021/08/12 06:35:35;;;;;;;5.30;3.72;;;;;;;21.13;63.38;97609.28;4961775;28;20032;-77
2021/08/12 06:38:01;;;;;;;4.72;4.28;;;;;;;21.29;63.25;97607.00;4991613;28;20093;-77
2021/08/12 06:40:27;;;;;;;5.82;4.03;;;;;;;21.43;63.14;97606.16;4994208;28;20041;-77
2021/08/12 06:42:53;;;;;;;4.85;3.45;;;;;;;21.68;62.48;97613.47;4961461;28;20029;-77
2021/08/12 06:45:20;;;;;;;6.47;5.20;;;;;;;21.86;62.46;97613.53;4978056;28;20389;-77
2021/08/12 06:47:49;;;;;;;5.43;3.70;;;;;;;22.02;62.00;97616.53;4977614;28;20036;-77
2021/08/12 06:50:16;;;;;;;7.50;4.07;;;;;;;22.19;61.03;97613.94;4990115;28;20030;-77
2021/08/12 06:52:42;;;;;;;7.10;4.40;;;;;;;22.41;60.83;97620.22;4974223;28;20037;-77
2021/08/12 06:55:08;;;;;;;3.88;3.30;;;;;;;22.69;60.45;97617.28;4990339;28;20038;-77
2021/08/12 06:57:34;;;;;;;4.60;3.85;;;;;;;22.99;60.06;97611.00;4957869;28;20033;-77
2021/08/12 06:59:59;;;;;;;4.60;3.95;;;;;;;23.22;59.76;97618.03;4988149;28;20675;-77
2021/08/12 07:02:25;;;;;;;4.53;3.70;;;;;;;23.47;58.97;97614.50;4958580;28;20477;-77
2021/08/12 07:04:50;;;;;;;4.22;3.83;;;;;;;23.78;57.93;97608.13;4958467;28;20081;-77
2021/08/12 07:07:15;;;;;;;4.20;3.70;;;;;;;24.14;57.00;97611.44;4970830;28;20033;-77
2021/08/12 07:09:42;;;;;;;5.38;3.85;;;;;;;24.46;55.88;97613.41;4974277;28;20038;-77
2021/08/12 07:12:08;;;;;;;4.38;3.90;;;;;;;24.78;55.38;97603.16;4974055;28;20129;-77
2021/08/12 07:14:33;;;;;;;3.90;3.50;;;;;;;25.09;55.08;97607.25;4990293;28;20114;-77
2021/08/12 07:16:59;;;;;;;4.55;3.70;;;;;;;25.38;54.34;97616.25;4974189;28;20093;-78
2021/08/12 07:19:25;;;;;;;4.20;3.70;;;;;;;25.44;52.65;97609.59;4974026;28;20472;-77
2021/08/12 07:21:53;;;;;;;4.10;3.58;;;;;;;25.68;53.18;97611.50;4973865;28;20034;-78
2021/08/12 07:24:18;;;;;;;4.70;3.47;;;;;;;25.80;51.47;97610.72;4990209;28;20018;-77
2021/08/12 07:26:47;;;;;;;6.30;4.75;;;;;;;26.01;52.43;97615.19;5004105;28;20113;-77
2021/08/12 07:29:15;;;;;;;5.53;4.80;;;;;;;26.11;51.14;97609.41;4990375;28;20460;-77
2021/08/12 07:31:41;;;;;;;7.63;6.75;;;;;;;26.14;50.69;97614.84;5009127;28;20087;-78
2021/08/12 07:34:06;;;;;;;7.75;6.18;;;;;;;26.14;51.38;97611.41;4992914;28;20030;-77
2021/08/12 07:36:34;;;;;;;5.13;4.60;;;;;;;26.43;50.42;97610.34;4993123;28;20044;-77
2021/08/12 07:38:59;;;;;;;4.45;4.05;;;;;;;26.72;50.00;97614.63;4942878;28;20061;-77
2021/08/12 07:41:25;;;;;;;5.65;4.13;;;;;;;26.76;49.14;97606.69;4994314;28;20413;-77
2021/08/12 07:43:50;;;;;;;5.20;4.47;;;;;;;26.97;48.24;97621.75;4958015;28;20034;-77
2021/08/12 07:46:16;;;;;;;4.53;3.80;;;;;;;27.02;48.57;97614.25;4973783;28;20030;-78
2021/08/12 07:48:41;;;;;;;3.75;3.40;;;;;;;27.17;48.74;97609.28;5007343;28;20085;-78
2021/08/12 07:51:07;;;;;;;4.50;3.70;;;;;;;27.47;48.03;97615.06;4976305;28;20120;-77
2021/08/12 07:53:35;;;;;;;4.30;3.85;;;;;;;27.57;47.13;97614.53;4960287;28;20034;-78
2021/08/12 07:56:01;;;;;;;4.55;3.70;;;;;;;27.78;47.44;97619.59;4977368;28;20034;-77
2021/08/12 07:58:27;;;;;;;4.32;3.78;;;;;;;28.01;47.38;97619.00;4987554;28;20049;-77
2021/08/12 08:00:53;;;;;;;11.82;4.22;;;;;;;28.28;46.59;97611.16;4974010;28;20040;-77
2021/08/12 08:03:20;;;;;;;10.57;3.97;;;;;;;28.38;45.84;97621.31;4946140;28;20038;-77
2021/08/12 08:05:46;;;;;;;6.93;4.50;;;;;;;28.56;45.15;97609.09;4973905;28;20068;-77
2021/08/12 08:08:11;;;;;;;4.47;3.70;;;;;;;28.85;44.91;97612.31;4989461;28;20057;-77
2021/08/12 08:10:37;;;;;;;4.53;3.75;;;;;;;28.96;44.53;97609.84;4996139;28;20080;-77
2021/08/12 08:13:03;;;;;;;6.45;4.63;;;;;;;29.22;43.17;97609.19;4980027;28;20065;-77
2021/08/12 08:15:28;;;;;;;4.00;3.63;;;;;;;29.13;43.66;97605.91;4979967;28;20022;-77
2021/08/12 08:17:54;;;;;;;4.75;4.30;;;;;;;29.13;43.97;97605.91;4964432;28;20089;-77
2021/08/12 08:20:20;;;;;;;3.70;3.42;;;;;;;29.31;43.35;97620.44;4956280;28;20092;-77
2021/08/12 08:22:47;;;;;;;4.40;3.70;;;;;;;29.39;43.47;97623.25;4963554;28;20034;-77
2021/08/12 08:25:12;;;;;;;4.22;3.92;;;;;;;29.85;41.83;97615.19;4980348;28;20443;-77
2021/08/12 08:27:38;;;;;;;5.15;3.65;;;;;;;30.16;39.44;97611.44;4967466;28;20042;-78
2021/08/12 08:30:04;;;;;;;4.35;3.80;;;;;;;30.32;38.72;97616.63;4976814;28;20026;-78
2021/08/12 08:32:32;;;;;;;4.13;3.65;;;;;;;30.40;37.90;97623.66;5001682;28;20038;-78
2021/08/12 08:34:57;;;;;;;3.78;3.47;;;;;;;30.46;37.70;97618.75;4999243;28;20026;-78
2021/08/12 08:37:23;;;;;;;4.00;3.60;;;;;;;30.56;37.72;97617.34;4981008;28;20030;-78
2021/08/12 08:39:48;;;;;;;4.30;3.90;;;;;;;30.73;36.83;97624.06;4960729;28;20041;-78
2021/08/12 08:42:18;;;;;;;4.82;4.43;;;;;;;30.59;38.81;97621.97;4978090;28;20117;-79
2021/08/12 08:44:45;;;;;;;3.65;3.35;;;;;;;31.03;38.87;97624.00;4979521;28;20449;-78
2021/08/12 08:47:14;;;;;;;3.42;3.13;;;;;;;31.31;38.54;97618.13;4979222;28;20030;-78
2021/08/12 08:49:46;;;;;;;4.22;3.92;;;;;;;31.59;37.28;97621.47;4995323;28;20041;-79
2021/08/12 08:52:13;;;;;;;5.75;3.60;;;;;;;31.69;36.61;97616.16;4956494;28;20030;-79
2021/08/12 08:54:40;;;;;;;3.90;3.58;;;;;;;31.78;35.54;97615.84;4975619;28;20037;-78
2021/08/12 08:57:06;;;;;;;3.83;3.53;;;;;;;31.89;35.63;97613.22;4992233;28;20049;-79
2021/08/12 08:59:34;;;;;;;4.13;3.70;;;;;;;31.77;36.34;97611.59;4967251;28;20029;-79
2021/08/12 09:02:04;;;;;;;4.57;4.03;;;;;;;32.06;36.01;97609.09;4995998;28;20053;-79
2021/08/12 09:04:33;;;;;;;4.00;3.45;;;;;;;31.83;37.73;97615.50;4995076;28;20026;-78
2021/08/12 09:07:01;;;;;;;4.07;3.67;;;;;;;32.27;36.81;97617.31;4979009;28;20033;-78
2021/08/12 09:09:28;;;;;;;5.07;4.13;;;;;;;32.13;38.08;97616.47;4975998;28;20101;-78
2021/08/12 09:11:53;;;;;;;4.30;3.90;;;;;;;32.32;36.51;97618.88;4975267;28;20042;-78
2021/08/12 09:14:42;;;;;;;3.90;3.50;;;;;;;32.35;35.75;97609.25;4959559;28;20043;-78
2021/08/12 09:17:19;;;;;;;4.32;4.00;;;;;;;32.40;34.62;97612.34;4989082;28;20029;-79
2021/08/12 09:19:58;;;;;;;4.50;4.03;;;;;;;32.19;35.30;97604.94;4982097;28;20119;-78
2021/08/12 09:22:23;;;;;;;4.60;4.20;;;;;;;32.50;34.39;97610.09;4991889;28;20058;-79
2021/08/12 09:24:50;;;;;;;4.20;3.80;;;;;;;32.34;36.28;97610.41;4975703;28;20058;-78
2021/08/12 09:27:25;;;;;;;4.38;3.75;;;;;;;31.36;37.51;97608.97;4998880;28;20088;-79
2021/08/12 09:30:11;;;;;;;4.28;3.88;;;;;;;31.18;37.16;97609.56;4991869;28;20108;-78
2021/08/12 09:32:49;;;;;;;5.28;4.57;;;;;;;31.34;37.45;97608.53;4994570;28;20052;-78
2021/08/12 09:35:23;;;;;;;4.60;4.20;;;;;;;31.30;38.84;97595.06;4962265;28;20037;-78
2021/08/12 09:37:48;;;;;;;4.88;4.05;;;;;;;31.59;38.26;97611.47;4975573;28;20033;-78
2021/08/12 09:40:14;;;;;;;4.35;3.95;;;;;;;31.84;36.99;97600.88;4993080;28;20121;-78
2021/08/12 09:42:56;;;;;;;3.80;3.50;;;;;;;32.15;35.53;97604.19;4978848;28;20092;-78
2021/08/12 09:45:24;;;;;;;6.25;4.10;;;;;;;32.14;37.06;97597.22;4975365;28;20027;-79
2021/08/12 09:47:49;;;;;;;4.43;4.05;;;;;;;32.27;35.86;97595.75;4959133;28;20043;-78
2021/08/12 09:50:23;;;;;;;4.18;3.78;;;;;;;32.45;35.43;97611.22;4979132;28;20038;-79
2021/08/12 09:52:48;;;;;;;4.30;3.90;;;;;;;32.81;34.93;97608.69;4975305;28;20030;-79
2021/08/12 09:55:18;;;;;;;4.07;3.78;;;;;;;33.04;34.95;97608.38;4965019;28;20864;-78
2021/08/12 09:57:47;;;;;;;4.57;4.05;;;;;;;33.10;35.05;97603.34;4960187;28;20070;-78
2021/08/12 10:00:39;;;;;;;4.47;4.07;;;;;;;32.85;33.78;97607.53;4960713;28;20034;-78
2021/08/12 10:03:21;;;;;;;4.40;4.00;;;;;;;33.31;34.54;97611.47;4977680;28;20053;-78
2021/08/12 10:05:46;;;;;;;5.93;4.00;;;;;;;33.33;33.64;97614.59;4991135;28;20465;-79
2021/08/12 10:08:24;;;;;;;4.35;3.95;;;;;;;33.21;32.86;97601.44;4971917;28;20029;-79
2021/08/12 10:10:49;;;;;;;4.50;4.10;;;;;;;33.20;32.97;97608.03;4990680;28;20030;-78
2021/08/12 10:13:15;;;;;;;5.35;4.20;;;;;;;33.19;35.05;97598.38;4961065;28;20065;-79
2021/08/12 10:15:48;;;;;;;4.22;3.88;;;;;;;33.17;32.82;97600.69;4978201;28;20030;-79
2021/08/12 10:18:18;;;;;;;4.53;4.10;;;;;;;33.39;31.74;97596.84;4978806;28;20029;-79
2021/08/12 10:20:44;;;;;;;4.30;3.90;;;;;;;33.49;32.05;97599.94;4993458;28;20524;-79
2021/08/12 10:23:10;;;;;;;4.15;3.83;;;;;;;33.30;32.10;97593.00;4993471;28;20061;-79
2021/08/12 10:25:36;;;;;;;4.50;4.10;;;;;;;33.22;30.54;97586.81;4993028;28;20057;-79
2021/08/12 10:28:05;;;;;;;4.15;3.75;;;;;;;33.25;30.80;97590.69;4977717;28;20022;-78
2021/08/12 10:30:31;;;;;;;4.07;3.70;;;;;;;32.98;33.02;97593.69;4976841;28;20026;-79
2021/08/12 10:32:58;;;;;;;4.18;3.80;;;;;;;32.76;33.72;97598.28;4977226;28;20029;-78
2021/08/12 10:35:26;;;;;;;3.88;3.47;;;;;;;32.59;34.82;97584.31;4977236;28;20034;-78
2021/08/12 10:37:54;;;;;;;3.65;3.33;;;;;;;32.63;35.90;97579.75;4977444;28;20033;-78
2021/08/12 10:40:21;;;;;;;4.30;4.00;;;;;;;32.63;33.65;97587.84;4993985;28;20030;-78
2021/08/12 10:42:48;;;;;;;4.45;4.05;;;;;;;32.38;34.98;97585.03;4976903;28;20109;-78
2021/08/12 10:45:14;;;;;;;3.90;3.58;;;;;;;32.32;34.50;97583.84;4993483;28;20053;-78
2021/08/12 10:47:43;;;;;;;4.25;3.85;;;;;;;32.37;33.96;97585.41;4993308;28;20439;-78
2021/08/12 10:50:26;;;;;;;4.13;3.83;;;;;;;32.15;34.66;97592.59;4967055;28;20042;-78
2021/08/12 10:53:04;;;;;;;4.43;4.00;;;;;;;32.42;35.59;97590.41;4958152;28;20084;-78
2021/08/12 10:55:31;;;;;;;4.38;3.97;;;;;;;32.98;34.58;97583.66;4987178;28;20029;-78
2021/08/12 10:58:18;;;;;;;4.35;4.00;;;;;;;33.11;33.56;97575.19;4973972;28;20045;-79
2021/08/12 11:00:57;;;;;;;4.20;3.88;;;;;;;33.02;30.89;97573.66;5003068;28;20030;-79
2021/08/12 11:03:32;;;;;;;4.60;4.20;;;;;;;33.07;34.38;97572.50;4989093;28;20037;-78
2021/08/12 11:06:04;;;;;;;4.00;3.70;;;;;;;33.15;31.60;97565.22;5010793;28;20042;-78
2021/08/12 11:08:52;;;;;;;4.38;3.95;;;;;;;33.12;32.53;97587.53;4983121;28;20161;-78
2021/08/12 11:11:20;;;;;;;4.55;4.15;;;;;;;33.38;33.29;97572.94;5005651;28;20109;-78
2021/08/12 11:13:49;;;;;;;4.55;4.15;;;;;;;33.57;33.13;97579.84;4993330;28;20057;-78
2021/08/12 11:16:15;;;;;;;4.53;4.00;;;;;;;33.54;31.48;97573.31;4977082;28;20037;-78
2021/08/12 11:18:52;;;;;;;4.25;3.85;;;;;;;33.21;31.08;97575.25;4977788;28;20044;-78
2021/08/12 11:21:30;;;;;;;4.63;4.22;;;;;;;33.51;33.49;97576.78;4990123;28;20069;-78
2021/08/12 11:23:59;;;;;;;4.30;3.90;;;;;;;33.33;34.49;97576.81;4986501;28;20560;-78
2021/08/12 11:26:26;;;;;;;4.88;4.47;;;;;;;33.27;32.26;97572.94;4968711;28;20034;-77
2021/08/12 11:28:55;;;;;;;4.50;4.10;;;;;;;33.40;33.31;97574.09;4971442;28;20029;-78
2021/08/12 11:31:20;;;;;;;4.25;3.85;;;;;;;33.22;31.76;97576.78;4971689;28;20487;-78
2021/08/12 11:33:57;;;;;;;4.57;3.95;;;;;;;33.22;32.17;97565.97;4975667;28;20026;-78
2021/08/12 11:36:31;;;;;;;4.60;4.20;;;;;;;33.45;32.11;97572.94;5001742;28;20084;-78